METAR Analyzer

一覧表示

Hello, Guest. (Login)

ROAH/OKA  -  那覇

観測日時
2021-05-15 16:00 (UTC) (21分前)
気温
26
露点
25
湿数
1
相対湿度
94.2%
QNH
1011.9hPa
推定現地気圧
1011.5hPa
推定海面気圧
1011.8hPa
体感温度
20.3
(無風時)
26.7
HI
27.1
気温前日比
±0
体感温度前日比
-0.6
HI前日比
±0
水平視程
>10000m
鉛直視程
データなし
雲底高度
700ft AGL
V/I
SVMC (SVFR)
RVR
No RVR data
卓越風
14kt from 170°
ガスト
No gust
降水
報告なし
その他の天気
報告なし
少しの(1/8) 層雲 @ 300ft AGL / 散在する(3/8) 層雲 @ 500ft AGL / 隙間のある(5/8) 層雲 @ 700ft AGL

ROAH 151600Z 17014KT 9999 FEW003 SCT005 BKN007 26/25 Q1011 RMK 1ST003 3ST005 5ST007 A2988

RODN  -  嘉手納基地

観測日時
2021-05-15 15:56 (UTC) (25分前)
気温
25.7
露点
23.3
湿数
2.4
相対湿度
86.6%
QNH
1012.2hPa
推定現地気圧
1006.9hPa
推定海面気圧
1012.0hPa
体感温度
20.8
(無風時)
26
HI
26.6
気温前日比
-0.1
体感温度前日比
-0.8
HI前日比
-0.1
水平視程
>10SM
鉛直視程
データなし
雲底高度
No dense clouds
V/I
VMC (VFR)
RVR
No RVR data
卓越風
7kt from 170°
ガスト
No gust
降水
報告なし
その他の天気
報告なし
少しの雲 @ 1200ft AGL

RODN 151556Z AUTO 17007KT 10SM FEW012 26/23 A2989 RMK AO2 SLP127 T02570233 $

ROTM  -  普天間飛行場

観測日時
2021-05-15 14:56 (UTC) (85分前)
気温
26.1
露点
24.4
湿数
1.7
相対湿度
90.4%
QNH
1013.5hPa
推定現地気圧
1004.5hPa
推定海面気圧
1013.1hPa
体感温度
20.8
(無風時)
26.6
HI
27.1
気温前日比
±0
体感温度前日比
-0.9
HI前日比
±0
水平視程
>10000m
鉛直視程
データなし
雲底高度
18000ft AGL
V/I
VMC (VFR)
RVR
No RVR data
卓越風
10kt from 180°
ガスト
18kt
降水
報告なし
その他の天気
報告なし
散在する雲 @ 1000ft AGL / 隙間のある雲 @ 18000ft AGL

ROTM 151456Z 18010G18KT 9999 SCT010 BKN180 26/24 A2993 RMK SLP117 T02610244 403000256 50000

RORK/KTD  -  北大東

観測日時
2021-05-15 16:00 (UTC) (21分前)
気温
26
露点
24
湿数
2
相対湿度
88.8%
QNH
1013.9hPa
推定現地気圧
1011.3hPa
推定海面気圧
1013.8hPa
体感温度
20.6
(無風時)
26.4
HI
27
気温前日比
±0
体感温度前日比
-2
HI前日比
-0.1
水平視程
>10000m
鉛直視程
データなし
雲底高度
No dense clouds
V/I
VMC (VFR)
RVR
No RVR data
卓越風
10kt from 170°
ガスト
No gust
降水
報告なし
その他の天気
報告なし
少しの雲 @ 900ft AGL

RORK 151600Z AUTO 17010KT 9999 FEW009 26/24 Q1013 RMK A2994

ROMD/MMD  -  南大東

観測日時
2021-05-15 16:00 (UTC) (21分前)
気温
26
露点
25
湿数
1
相対湿度
94.2%
QNH
1013.9hPa
推定現地気圧
1008.1hPa
推定海面気圧
1013.6hPa
体感温度
22.2
(無風時)
26.7
HI
27.1
気温前日比
±0
体感温度前日比
-0.7
HI前日比
-0.2
水平視程
>10000m
鉛直視程
データなし
雲底高度
No dense clouds
V/I
VMC (VFR)
RVR
No RVR data
卓越風
5kt from 170°
ガスト
No gust
降水
報告なし
その他の天気
報告なし
目立った雲なし

ROMD 151600Z AUTO 17005KT 9999 NCD 26/25 Q1014 RMK A2994

RORA/AGJ  -  粟国